createdAt,value
2018-03-29T00:00:12.090Z,16.40
2018-03-29T00:01:12.207Z,17.30
2018-03-29T00:02:12.361Z,18.90
2018-03-29T00:03:12.472Z,18.90
2018-03-29T00:04:12.602Z,19.60
2018-03-29T00:05:12.680Z,18.70
2018-03-29T00:06:12.823Z,20.40
2018-03-29T00:07:13.114Z,20.50
2018-03-29T00:08:13.222Z,20.10
2018-03-29T00:09:13.357Z,21.40
2018-03-29T00:10:14.080Z,20.00
2018-03-29T00:11:13.879Z,19.50
2018-03-29T00:12:14.063Z,21.30
2018-03-29T00:13:14.145Z,19.40
2018-03-29T00:14:14.168Z,18.40
2018-03-29T00:15:14.343Z,18.60
2018-03-29T00:16:14.764Z,19.90
2018-03-29T00:17:14.647Z,20.10
2018-03-29T00:18:14.879Z,20.30
2018-03-29T00:19:15.064Z,19.90
2018-03-29T00:20:15.027Z,21.50
2018-03-29T00:21:15.206Z,21.40
2018-03-29T00:22:15.387Z,21.20
2018-03-29T00:23:15.569Z,19.70
2018-03-29T00:24:15.746Z,19.50
2018-03-29T00:25:15.953Z,19.00
2018-03-29T00:26:16.106Z,18.20
2018-03-29T00:27:16.285Z,19.00
2018-03-29T00:28:16.459Z,20.40
2018-03-29T00:29:16.630Z,18.70
2018-03-29T00:30:16.809Z,19.40
2018-03-29T00:31:16.992Z,20.40
2018-03-29T00:32:17.178Z,19.60
2018-03-29T00:33:17.360Z,20.10
2018-03-29T00:34:17.542Z,19.20
2018-03-29T00:35:17.721Z,19.10
2018-03-29T00:36:17.904Z,19.80
2018-03-29T00:37:18.086Z,19.30
2018-03-29T00:38:18.262Z,19.80
2018-03-29T00:39:18.444Z,20.00
2018-03-29T00:40:18.617Z,20.10
2018-03-29T00:41:18.789Z,20.20
2018-03-29T00:42:18.963Z,20.50
2018-03-29T00:43:19.142Z,20.50
2018-03-29T00:44:19.322Z,20.30
2018-03-29T00:45:19.503Z,19.40
2018-03-29T00:46:19.683Z,20.90
2018-03-29T00:47:19.864Z,22.10
2018-03-29T00:48:20.043Z,20.90
2018-03-29T00:49:20.228Z,22.10
2018-03-29T00:50:20.412Z,22.00
2018-03-29T00:51:20.596Z,21.80
2018-03-29T00:52:20.778Z,21.50
2018-03-29T00:53:20.953Z,22.30
2018-03-29T00:54:21.128Z,21.70
2018-03-29T00:55:21.307Z,21.70
2018-03-29T00:56:21.484Z,21.60
2018-03-29T00:57:21.661Z,22.40
2018-03-29T00:58:21.839Z,21.10
2018-03-29T00:59:22.017Z,20.40
2018-03-29T01:00:22.193Z,21.10
2018-03-29T01:01:22.376Z,22.60
2018-03-29T01:02:22.553Z,21.60
2018-03-29T01:03:22.734Z,22.70
2018-03-29T01:04:22.917Z,20.50
2018-03-29T01:05:23.099Z,20.60
2018-03-29T01:06:23.280Z,19.60
2018-03-29T01:07:23.458Z,20.00
2018-03-29T01:08:23.633Z,19.80
2018-03-29T01:09:23.808Z,19.30
2018-03-29T01:10:24.035Z,19.90
2018-03-29T01:11:24.169Z,20.40
2018-03-29T01:12:24.351Z,20.40
2018-03-29T01:13:24.531Z,19.80
2018-03-29T01:14:24.708Z,19.40
2018-03-29T01:15:24.888Z,19.70
2018-03-29T01:16:25.068Z,19.40
2018-03-29T01:17:25.246Z,19.20
2018-03-29T01:18:25.423Z,19.40
2018-03-29T01:19:25.602Z,20.30
2018-03-29T01:20:25.779Z,19.00
2018-03-29T01:21:25.952Z,18.60
2018-03-29T01:22:26.130Z,18.80
2018-03-29T01:23:26.309Z,19.00
2018-03-29T01:24:26.487Z,18.50
2018-03-29T01:25:26.662Z,18.80
2018-03-29T01:26:26.845Z,18.80
2018-03-29T01:27:27.026Z,19.90
2018-03-29T01:28:27.199Z,20.80
2018-03-29T01:29:27.377Z,20.40
2018-03-29T01:30:27.559Z,19.60
2018-03-29T01:31:27.756Z,20.40
2018-03-29T01:32:27.918Z,19.70
2018-03-29T01:33:28.096Z,20.30
2018-03-29T01:34:28.269Z,19.30
2018-03-29T01:35:28.447Z,19.80
2018-03-29T01:36:28.632Z,19.90
2018-03-29T01:37:28.813Z,18.80
2018-03-29T01:38:28.994Z,19.80
2018-03-29T01:39:29.166Z,20.90
2018-03-29T01:40:29.348Z,20.30
2018-03-29T01:41:29.534Z,19.60
2018-03-29T01:42:29.751Z,19.90
2018-03-29T01:43:29.815Z,21.60
2018-03-29T01:44:29.990Z,20.90
2018-03-29T01:45:30.167Z,19.60
2018-03-29T01:46:30.346Z,19.00
2018-03-29T01:47:30.530Z,16.40
2018-03-29T01:48:30.702Z,16.00
2018-03-29T01:49:30.884Z,15.80
2018-03-29T01:50:31.063Z,14.70
2018-03-29T01:51:31.244Z,15.10
2018-03-29T01:52:31.423Z,13.90
2018-03-29T01:53:31.603Z,13.60
2018-03-29T01:54:31.782Z,13.90
2018-03-29T01:55:31.956Z,13.40
2018-03-29T01:56:32.139Z,13.50
2018-03-29T01:57:32.314Z,12.70
2018-03-29T01:58:32.490Z,13.70
2018-03-29T01:59:32.668Z,13.30
2018-03-29T02:00:32.852Z,13.20
2018-03-29T02:01:33.036Z,12.90
2018-03-29T02:02:33.214Z,13.10
2018-03-29T02:03:33.397Z,13.40
2018-03-29T02:04:33.575Z,12.80
2018-03-29T02:05:33.748Z,12.30
2018-03-29T02:06:33.925Z,12.30
2018-03-29T02:07:34.102Z,11.80
2018-03-29T02:08:34.288Z,10.90
2018-03-29T02:09:34.468Z,11.50
2018-03-29T02:10:34.648Z,11.40
2018-03-29T02:11:34.826Z,11.00
2018-03-29T02:12:35.006Z,11.40
2018-03-29T02:13:35.181Z,11.60
2018-03-29T02:14:35.358Z,11.80
2018-03-29T02:15:35.543Z,12.40
2018-03-29T02:16:35.717Z,11.60
2018-03-29T02:17:35.896Z,11.60
2018-03-29T02:18:36.073Z,11.60
2018-03-29T02:19:36.249Z,11.20
2018-03-29T02:20:36.426Z,11.20
2018-03-29T02:21:36.602Z,11.20
2018-03-29T02:22:36.777Z,10.90
2018-03-29T02:23:36.957Z,10.40
2018-03-29T02:24:37.133Z,10.40
2018-03-29T02:25:37.323Z,10.10
2018-03-29T02:26:37.492Z,10.20
2018-03-29T02:27:37.669Z,10.50
2018-03-29T02:28:37.852Z,14.30
2018-03-29T02:29:38.033Z,16.40
2018-03-29T02:30:38.218Z,24.30
2018-03-29T02:31:38.401Z,12.10
2018-03-29T02:32:38.572Z,9.80
2018-03-29T02:33:38.749Z,8.90
2018-03-29T02:34:38.927Z,7.90
2018-03-29T02:35:39.104Z,8.30
2018-03-29T02:36:39.284Z,8.60
2018-03-29T02:37:39.459Z,8.90
2018-03-29T02:38:39.638Z,7.80
2018-03-29T02:39:39.817Z,7.40
2018-03-29T02:40:39.995Z,7.30
2018-03-29T02:41:40.225Z,7.50
2018-03-29T02:42:40.357Z,7.30
2018-03-29T02:43:40.540Z,7.30
2018-03-29T02:44:40.723Z,6.70
2018-03-29T02:45:40.901Z,6.20
2018-03-29T02:46:41.088Z,7.00
2018-03-29T02:47:41.269Z,6.50
2018-03-29T02:48:41.451Z,6.40
2018-03-29T02:49:41.634Z,6.40
2018-03-29T02:50:41.808Z,6.60
2018-03-29T02:51:41.990Z,6.20
2018-03-29T02:52:42.748Z,6.50
2018-03-29T02:53:42.297Z,6.40
2018-03-29T02:54:42.482Z,6.20
2018-03-29T02:55:42.658Z,6.00
2018-03-29T02:56:42.840Z,6.20
2018-03-29T02:57:43.021Z,6.00
2018-03-29T02:58:43.193Z,6.50
2018-03-29T02:59:43.373Z,5.50
2018-03-29T03:00:43.555Z,5.60
2018-03-29T03:01:43.733Z,5.90
2018-03-29T03:02:43.903Z,5.70
2018-03-29T03:03:44.085Z,6.00
2018-03-29T03:04:44.259Z,5.50
2018-03-29T03:05:44.443Z,5.70
2018-03-29T03:06:44.620Z,5.30
2018-03-29T03:07:44.803Z,5.50
2018-03-29T03:08:44.985Z,5.40
2018-03-29T03:09:45.157Z,5.90
2018-03-29T03:10:45.341Z,5.30
2018-03-29T03:11:45.525Z,5.60
2018-03-29T03:12:45.708Z,6.00
2018-03-29T03:13:45.883Z,5.90
2018-03-29T03:14:48.516Z,5.60
2018-03-29T03:15:51.591Z,5.90
2018-03-29T03:16:48.534Z,6.10
2018-03-29T03:17:50.865Z,5.70
2018-03-29T03:18:50.296Z,6.00
2018-03-29T03:19:51.247Z,5.90
2018-03-29T03:20:51.092Z,5.90
2018-03-29T03:21:51.314Z,5.50
2018-03-29T03:22:52.089Z,5.80
2018-03-29T03:23:52.129Z,5.80
2018-03-29T03:24:49.109Z,5.50
2018-03-29T03:25:50.412Z,6.00
2018-03-29T03:26:51.992Z,5.80
2018-03-29T03:27:52.139Z,5.50
2018-03-29T03:28:48.249Z,5.70
2018-03-29T03:29:48.424Z,5.40
2018-03-29T03:30:48.601Z,5.40
2018-03-29T03:31:48.778Z,5.40
2018-03-29T03:32:48.956Z,5.50
2018-03-29T03:33:49.135Z,5.90
2018-03-29T03:34:49.313Z,5.50
2018-03-29T03:35:49.484Z,5.30
2018-03-29T03:36:49.669Z,5.60
2018-03-29T03:37:49.850Z,5.70
2018-03-29T03:38:50.031Z,5.80
2018-03-29T03:39:50.215Z,5.60
2018-03-29T03:40:50.392Z,5.90
2018-03-29T03:41:50.573Z,6.10
2018-03-29T03:42:50.746Z,6.10
2018-03-29T03:43:50.933Z,6.50
2018-03-29T03:44:51.107Z,6.50
2018-03-29T03:45:51.291Z,6.60
2018-03-29T03:46:51.480Z,6.80
2018-03-29T03:47:51.652Z,6.80
2018-03-29T03:48:51.839Z,7.20
2018-03-29T03:49:52.015Z,8.20
2018-03-29T03:50:52.202Z,8.40
2018-03-29T03:51:52.376Z,7.60
2018-03-29T03:52:52.554Z,8.00
2018-03-29T03:53:52.737Z,8.70
2018-03-29T03:54:52.914Z,8.50
2018-03-29T03:55:53.101Z,8.50
2018-03-29T03:56:53.280Z,8.60
2018-03-29T03:57:53.472Z,8.60
2018-03-29T03:58:53.649Z,9.00
2018-03-29T03:59:53.831Z,9.50
2018-03-29T04:00:54.032Z,8.60
2018-03-29T04:01:54.228Z,8.90
2018-03-29T04:02:54.398Z,9.30
2018-03-29T04:03:54.580Z,9.90
2018-03-29T04:04:54.757Z,10.00
2018-03-29T04:05:54.941Z,9.70
2018-03-29T04:06:55.116Z,11.00
2018-03-29T04:07:55.293Z,10.40
2018-03-29T04:08:55.470Z,10.50
2018-03-29T04:09:55.654Z,10.40
2018-03-29T04:10:55.848Z,10.70
2018-03-29T04:11:56.028Z,10.90
2018-03-29T04:12:56.205Z,11.80
2018-03-29T04:13:56.379Z,11.60
2018-03-29T04:14:56.557Z,11.90
2018-03-29T04:15:56.733Z,12.70
2018-03-29T04:16:56.907Z,12.70
2018-03-29T04:17:57.086Z,13.30
2018-03-29T04:18:57.276Z,13.50
2018-03-29T04:19:57.482Z,14.20
2018-03-29T04:20:57.626Z,13.50
2018-03-29T04:21:57.818Z,13.80
2018-03-29T04:22:57.983Z,13.50
2018-03-29T04:23:58.160Z,14.00
2018-03-29T04:24:58.341Z,14.10
2018-03-29T04:25:58.540Z,14.70
2018-03-29T04:26:58.720Z,14.30
2018-03-29T04:27:58.901Z,14.00
2018-03-29T04:28:59.123Z,14.00
2018-03-29T04:29:59.296Z,13.70
2018-03-29T04:30:59.478Z,13.70
2018-03-29T04:31:59.656Z,13.90
2018-03-29T04:32:59.834Z,14.20
2018-03-29T04:34:00.012Z,14.80
2018-03-29T04:35:00.189Z,14.60
2018-03-29T04:36:00.367Z,14.90
2018-03-29T04:37:00.541Z,14.90
2018-03-29T04:38:00.716Z,13.80
2018-03-29T04:39:00.893Z,14.50
2018-03-29T04:40:01.075Z,14.60
2018-03-29T04:41:01.255Z,15.40
2018-03-29T04:42:01.433Z,14.40
2018-03-29T04:43:01.613Z,14.30
2018-03-29T04:44:01.794Z,13.60
2018-03-29T04:45:01.996Z,14.60
2018-03-29T04:46:02.186Z,15.30
2018-03-29T04:47:02.374Z,15.20
2018-03-29T04:48:05.144Z,15.20
2018-03-29T04:49:04.371Z,14.90
2018-03-29T04:50:04.772Z,14.80
2018-03-29T04:51:05.821Z,14.80
2018-03-29T04:52:05.509Z,14.60
2018-03-29T04:53:07.226Z,14.50
2018-03-29T04:54:04.995Z,14.80
2018-03-29T04:55:03.560Z,14.30
2018-03-29T04:56:03.738Z,14.20
2018-03-29T04:57:03.921Z,14.00
2018-03-29T04:58:04.099Z,13.70
2018-03-29T04:59:04.288Z,13.50
2018-03-29T05:00:04.474Z,13.90
2018-03-29T05:01:04.657Z,14.30
2018-03-29T05:02:04.838Z,14.40
2018-03-29T05:03:05.012Z,14.50
2018-03-29T05:04:05.344Z,14.00
2018-03-29T05:05:05.398Z,14.60
2018-03-29T05:06:05.583Z,14.20
2018-03-29T05:07:08.312Z,14.00
2018-03-29T05:08:08.127Z,14.80
2018-03-29T05:09:08.873Z,14.30
2018-03-29T05:10:08.727Z,13.80
2018-03-29T05:11:07.504Z,14.30
2018-03-29T05:12:06.656Z,14.00
2018-03-29T05:13:06.827Z,14.10
2018-03-29T05:14:07.008Z,14.30
2018-03-29T05:15:07.207Z,14.10
2018-03-29T05:16:07.379Z,14.80
2018-03-29T05:17:09.408Z,14.10
2018-03-29T05:18:10.521Z,14.20
2018-03-29T05:19:10.145Z,14.60
2018-03-29T05:20:11.982Z,14.70
2018-03-29T05:21:10.242Z,15.30
2018-03-29T05:22:12.300Z,15.00
2018-03-29T05:23:11.624Z,14.60
2018-03-29T05:24:10.088Z,15.30
2018-03-29T05:25:10.837Z,14.90
2018-03-29T05:26:10.865Z,14.50
2018-03-29T05:27:09.925Z,15.40
2018-03-29T05:28:12.363Z,15.00
2018-03-29T05:29:12.169Z,15.50
2018-03-29T05:30:12.248Z,15.90
2018-03-29T05:31:10.494Z,14.90
2018-03-29T05:32:15.389Z,14.60
2018-03-29T05:33:13.290Z,14.70
2018-03-29T05:34:13.473Z,15.50
2018-03-29T05:35:12.082Z,15.20
2018-03-29T05:36:14.833Z,15.20
2018-03-29T05:37:14.433Z,14.50
2018-03-29T05:38:15.514Z,15.30
2018-03-29T05:39:14.587Z,15.10
2018-03-29T05:40:13.011Z,15.10
2018-03-29T05:41:13.373Z,15.00
2018-03-29T05:42:11.516Z,15.50
2018-03-29T05:43:11.704Z,15.30
2018-03-29T05:44:11.875Z,15.20
2018-03-29T05:45:12.400Z,16.00
2018-03-29T05:46:12.189Z,15.20
2018-03-29T05:47:12.354Z,15.80
2018-03-29T05:48:12.722Z,16.20
2018-03-29T05:49:13.021Z,15.50
2018-03-29T05:50:12.941Z,16.50
2018-03-29T05:51:13.126Z,15.40
2018-03-29T05:52:13.308Z,15.80
2018-03-29T05:53:13.481Z,15.50
2018-03-29T05:54:13.653Z,15.40
2018-03-29T05:55:13.837Z,15.60
2018-03-29T05:56:14.004Z,15.00
2018-03-29T05:57:14.205Z,15.10
2018-03-29T05:58:14.362Z,15.20
2018-03-29T05:59:14.540Z,15.30
2018-03-29T06:00:14.725Z,15.50
2018-03-29T06:01:14.900Z,15.70
2018-03-29T06:02:15.076Z,14.70
2018-03-29T06:03:15.299Z,15.80
2018-03-29T06:04:15.428Z,15.80
2018-03-29T06:05:15.613Z,16.50
2018-03-29T06:06:15.791Z,15.10
2018-03-29T06:07:15.975Z,15.70
2018-03-29T06:08:16.156Z,16.20
2018-03-29T06:09:16.332Z,17.10
2018-03-29T06:10:16.525Z,15.80
2018-03-29T06:11:16.725Z,15.70
2018-03-29T06:12:17.200Z,15.10
2018-03-29T06:13:17.284Z,15.90
2018-03-29T06:14:17.666Z,16.20
2018-03-29T06:15:17.556Z,15.80
2018-03-29T06:16:20.515Z,15.50
2018-03-29T06:17:18.048Z,15.80
2018-03-29T06:18:18.168Z,15.40
2018-03-29T06:19:18.227Z,15.60
2018-03-29T06:20:18.309Z,15.70
2018-03-29T06:21:19.681Z,15.30
2018-03-29T06:22:18.745Z,16.30
2018-03-29T06:23:19.067Z,16.20
2018-03-29T06:24:19.205Z,15.60
2018-03-29T06:25:19.262Z,15.50
2018-03-29T06:26:19.458Z,14.70
2018-03-29T06:27:19.638Z,15.00
2018-03-29T06:28:20.029Z,14.60
2018-03-29T06:29:20.022Z,15.60
2018-03-29T06:30:19.825Z,14.90
2018-03-29T06:31:20.010Z,14.80
2018-03-29T06:32:20.199Z,15.10
2018-03-29T06:33:20.380Z,15.10
2018-03-29T06:34:21.409Z,14.60
2018-03-29T06:35:20.712Z,14.70
2018-03-29T06:36:20.890Z,14.70
2018-03-29T06:37:21.415Z,14.70
2018-03-29T06:38:21.225Z,14.90
2018-03-29T06:39:21.405Z,15.00
2018-03-29T06:40:21.582Z,15.40
2018-03-29T06:41:21.751Z,15.70
2018-03-29T06:42:21.929Z,15.40
2018-03-29T06:43:22.116Z,16.10
2018-03-29T06:44:22.289Z,16.00
2018-03-29T06:45:22.652Z,15.60
2018-03-29T06:46:22.914Z,15.60
2018-03-29T06:47:22.824Z,15.40
2018-03-29T06:48:23.014Z,15.50
2018-03-29T06:49:23.184Z,15.50
2018-03-29T06:50:23.365Z,16.70
2018-03-29T06:51:23.544Z,16.30
2018-03-29T06:52:25.354Z,16.00
2018-03-29T06:53:23.904Z,17.30
2018-03-29T06:54:25.614Z,15.90
2018-03-29T06:55:24.231Z,16.20
2018-03-29T06:56:24.894Z,16.00
2018-03-29T06:57:26.549Z,16.00
2018-03-29T06:58:25.282Z,17.40
2018-03-29T06:59:24.849Z,17.10
2018-03-29T07:00:25.050Z,16.60
2018-03-29T07:01:25.220Z,16.20
2018-03-29T07:02:25.569Z,16.80
2018-03-29T07:03:25.523Z,17.50
2018-03-29T07:04:25.722Z,16.70
2018-03-29T07:05:25.895Z,17.00
2018-03-29T07:06:26.886Z,16.30
2018-03-29T07:07:26.320Z,17.00
2018-03-29T07:08:26.480Z,17.30
2018-03-29T07:09:26.851Z,17.30
2018-03-29T07:10:26.791Z,17.20
2018-03-29T07:11:26.988Z,17.40
2018-03-29T07:12:27.167Z,17.00
2018-03-29T07:13:27.341Z,17.20
2018-03-29T07:14:27.522Z,17.20
2018-03-29T07:15:27.697Z,17.30
2018-03-29T07:16:27.878Z,17.50
2018-03-29T07:17:28.053Z,17.30
2018-03-29T07:18:28.231Z,15.90
2018-03-29T07:19:28.400Z,15.80
2018-03-29T07:20:28.588Z,16.60
2018-03-29T07:21:28.903Z,15.20
2018-03-29T07:22:28.958Z,15.90
2018-03-29T07:23:29.181Z,16.00
2018-03-29T07:24:29.341Z,16.00
2018-03-29T07:25:29.524Z,15.50
2018-03-29T07:26:29.733Z,14.80
2018-03-29T07:27:29.906Z,14.90
2018-03-29T07:28:30.302Z,14.70
2018-03-29T07:29:30.204Z,14.90
2018-03-29T07:30:31.730Z,15.30
2018-03-29T07:31:30.496Z,15.70
2018-03-29T07:32:30.675Z,15.10
2018-03-29T07:33:30.858Z,15.80
2018-03-29T07:34:31.036Z,15.80
2018-03-29T07:35:31.930Z,15.90
2018-03-29T07:36:31.676Z,16.00
2018-03-29T07:37:34.802Z,15.80
2018-03-29T07:38:31.820Z,14.80
2018-03-29T07:39:33.915Z,14.70
2018-03-29T07:40:33.851Z,14.60
2018-03-29T07:41:33.537Z,14.40
2018-03-29T07:42:33.951Z,14.20
2018-03-29T07:43:32.547Z,14.60
2018-03-29T07:44:35.352Z,14.60
2018-03-29T07:45:33.005Z,14.40
2018-03-29T07:46:35.421Z,14.50
2018-03-29T07:47:35.637Z,15.10
2018-03-29T07:48:34.350Z,15.80
2018-03-29T07:49:34.055Z,15.80
2018-03-29T07:50:34.371Z,14.30
2018-03-29T07:51:33.957Z,14.90
2018-03-29T07:52:34.700Z,14.60
2018-03-29T07:53:35.052Z,14.80
2018-03-29T07:54:35.495Z,13.90
2018-03-29T07:55:35.222Z,14.80
2018-03-29T07:56:35.919Z,16.20
2018-03-29T07:57:35.485Z,15.90
2018-03-29T07:58:34.918Z,14.90
2018-03-29T07:59:35.129Z,14.10
2018-03-29T08:00:35.420Z,15.50
2018-03-29T08:01:35.648Z,15.70
2018-03-29T08:02:35.602Z,15.50
2018-03-29T08:03:35.772Z,13.90
2018-03-29T08:04:35.952Z,13.80
2018-03-29T08:05:36.134Z,13.50
2018-03-29T08:06:36.315Z,13.00
2018-03-29T08:07:36.502Z,12.90
2018-03-29T08:08:37.065Z,13.00
2018-03-29T08:09:39.534Z,12.30
2018-03-29T08:10:39.136Z,12.50
2018-03-29T08:11:39.970Z,11.50
2018-03-29T08:12:39.324Z,12.00
2018-03-29T08:13:41.287Z,12.40
2018-03-29T08:14:39.545Z,12.50
2018-03-29T08:15:41.037Z,11.50
2018-03-29T08:16:40.478Z,12.90
2018-03-29T08:17:40.627Z,12.70
2018-03-29T08:18:41.923Z,13.10
2018-03-29T08:19:42.244Z,11.70
2018-03-29T08:20:41.757Z,11.60
2018-03-29T08:21:39.292Z,11.20
2018-03-29T08:22:40.935Z,12.00
2018-03-29T08:23:41.954Z,11.60
2018-03-29T08:24:40.884Z,10.90
2018-03-29T08:25:41.561Z,11.40
2018-03-29T08:26:41.870Z,11.20
2018-03-29T08:27:43.249Z,12.10
2018-03-29T08:28:40.035Z,12.80
2018-03-29T08:29:40.080Z,12.40
2018-03-29T08:30:40.257Z,12.00
2018-03-29T08:31:42.012Z,12.50
2018-03-29T08:32:40.811Z,12.90
2018-03-29T08:33:41.987Z,12.60
2018-03-29T08:34:40.902Z,12.50
2018-03-29T08:35:41.103Z,13.00
2018-03-29T08:36:42.732Z,13.20
2018-03-29T08:37:41.424Z,13.40
2018-03-29T08:38:41.701Z,13.90
2018-03-29T08:39:41.764Z,13.60
2018-03-29T08:40:41.964Z,14.00
2018-03-29T08:41:42.162Z,13.30
2018-03-29T08:42:45.865Z,13.80
2018-03-29T08:43:42.538Z,13.40
2018-03-29T08:44:42.762Z,14.00
2018-03-29T08:45:42.951Z,13.70
2018-03-29T08:46:43.005Z,14.40
2018-03-29T08:47:43.202Z,15.20
2018-03-29T08:48:43.411Z,14.80
2018-03-29T08:49:43.599Z,15.30
2018-03-29T08:50:43.780Z,15.90
2018-03-29T08:51:43.961Z,16.90
2018-03-29T08:52:44.148Z,18.10
2018-03-29T08:53:44.673Z,18.60
2018-03-29T08:54:46.445Z,17.60
2018-03-29T08:55:45.092Z,16.30
2018-03-29T08:56:45.293Z,15.30
2018-03-29T08:57:45.632Z,17.20
2018-03-29T08:58:45.149Z,16.30
2018-03-29T08:59:45.387Z,16.20
2018-03-29T09:00:45.649Z,16.30
2018-03-29T09:01:47.114Z,15.50
2018-03-29T09:02:48.090Z,15.60
2018-03-29T09:03:46.787Z,16.30
2018-03-29T09:04:48.300Z,16.20
2018-03-29T09:05:47.522Z,17.00
2018-03-29T09:06:46.664Z,16.50
2018-03-29T09:07:49.366Z,16.30
2018-03-29T09:08:49.505Z,15.00
2018-03-29T09:09:48.064Z,16.00
2018-03-29T09:10:47.844Z,15.70
2018-03-29T09:11:48.777Z,15.30
2018-03-29T09:12:48.578Z,16.00
2018-03-29T09:13:51.816Z,16.20
2018-03-29T09:14:47.818Z,15.50
2018-03-29T09:15:48.039Z,15.00
2018-03-29T09:16:48.262Z,15.10
2018-03-29T09:17:48.429Z,15.40
2018-03-29T09:18:48.618Z,15.20
2018-03-29T09:19:51.681Z,15.10
2018-03-29T09:20:51.994Z,15.30
2018-03-29T09:21:49.663Z,14.80
2018-03-29T09:22:49.361Z,14.90
2018-03-29T09:23:49.591Z,15.40
2018-03-29T09:24:49.723Z,15.70
2018-03-29T09:25:49.918Z,15.70
2018-03-29T09:26:50.110Z,16.30
2018-03-29T09:27:50.327Z,15.50
2018-03-29T09:28:50.493Z,15.30
2018-03-29T09:29:50.806Z,14.80
2018-03-29T09:30:50.767Z,15.90
2018-03-29T09:31:51.266Z,16.20
2018-03-29T09:32:51.421Z,16.00
2018-03-29T09:33:51.516Z,16.50
2018-03-29T09:34:51.397Z,16.30
2018-03-29T09:35:51.584Z,16.10
2018-03-29T09:36:51.959Z,15.50
2018-03-29T09:37:52.108Z,16.10
2018-03-29T09:38:52.361Z,15.20
2018-03-29T09:39:53.658Z,15.40
2018-03-29T09:40:53.466Z,15.20
2018-03-29T09:41:54.438Z,14.90
2018-03-29T09:42:55.372Z,15.10
2018-03-29T09:43:56.602Z,14.80
2018-03-29T09:44:55.140Z,15.20
2018-03-29T09:45:55.795Z,14.80
2018-03-29T09:46:55.592Z,14.40
2018-03-29T09:47:55.515Z,14.20
2018-03-29T09:48:55.861Z,13.80
2018-03-29T09:49:54.752Z,13.10
2018-03-29T09:50:54.808Z,13.10
2018-03-29T09:51:55.956Z,12.40
2018-03-29T09:52:55.397Z,13.10
2018-03-29T09:53:55.602Z,13.70
2018-03-29T09:54:55.615Z,13.10
2018-03-29T09:55:55.834Z,12.40
2018-03-29T09:56:55.914Z,12.20
2018-03-29T09:57:57.072Z,11.20
2018-03-29T09:58:56.187Z,11.80
2018-03-29T09:59:56.960Z,11.60
2018-03-29T10:00:56.369Z,11.20
2018-03-29T10:01:56.436Z,10.90
2018-03-29T10:02:56.597Z,11.30
2018-03-29T10:03:56.367Z,11.80
2018-03-29T10:04:56.760Z,11.00
2018-03-29T10:05:56.765Z,11.30
2018-03-29T10:06:56.994Z,11.70
2018-03-29T10:07:57.164Z,11.80
2018-03-29T10:08:57.364Z,12.00
2018-03-29T10:09:57.560Z,11.20
2018-03-29T10:10:57.787Z,11.80
2018-03-29T10:11:57.955Z,12.10
2018-03-29T10:12:58.139Z,12.00
2018-03-29T10:13:58.324Z,11.90
2018-03-29T10:14:58.524Z,11.70
2018-03-29T10:15:58.724Z,11.80
2018-03-29T10:16:58.912Z,12.00
2018-03-29T10:17:59.086Z,11.40
2018-03-29T10:18:59.317Z,12.10
2018-03-29T10:19:59.379Z,12.20
2018-03-29T10:20:59.589Z,12.20
2018-03-29T10:21:59.781Z,12.00
2018-03-29T10:22:59.966Z,11.60
2018-03-29T10:24:00.150Z,12.00
2018-03-29T10:25:00.325Z,11.70
2018-03-29T10:26:00.507Z,12.60
2018-03-29T10:27:00.682Z,12.40
2018-03-29T10:28:00.871Z,12.30
2018-03-29T10:29:01.047Z,11.90
2018-03-29T10:30:01.224Z,12.70
2018-03-29T10:31:01.400Z,12.00
2018-03-29T10:32:01.591Z,12.80
2018-03-29T10:33:01.756Z,12.40
2018-03-29T10:34:01.966Z,11.90
2018-03-29T10:35:02.145Z,12.80
2018-03-29T10:36:02.315Z,12.50
2018-03-29T10:37:02.506Z,13.00
2018-03-29T10:38:02.681Z,12.70
2018-03-29T10:39:02.857Z,12.80
2018-03-29T10:40:03.038Z,13.20
2018-03-29T10:41:03.219Z,12.70
2018-03-29T10:42:03.404Z,13.10
2018-03-29T10:43:03.582Z,12.50
2018-03-29T11:35:48.496Z,13.20
2018-03-29T11:36:48.534Z,14.90
2018-03-29T11:37:48.718Z,15.50
2018-03-29T11:38:48.956Z,14.50
2018-03-29T11:39:49.073Z,14.80
2018-03-29T11:40:49.259Z,14.00
2018-03-29T11:41:49.442Z,14.20
2018-03-29T11:42:49.641Z,13.80
2018-03-29T11:43:49.834Z,13.90
2018-03-29T11:44:50.052Z,14.20
2018-03-29T11:45:50.834Z,14.30
2018-03-29T11:46:51.457Z,14.00
2018-03-29T11:47:50.792Z,13.20
2018-03-29T11:48:50.725Z,13.30
2018-03-29T11:49:50.888Z,13.90
2018-03-29T11:50:51.142Z,14.50
2018-03-29T11:51:51.262Z,13.60
2018-03-29T11:52:51.638Z,13.90
2018-03-29T11:53:51.843Z,13.40
2018-03-29T11:54:51.824Z,13.50
2018-03-29T11:55:52.014Z,13.10
2018-03-29T11:56:52.193Z,13.00
2018-03-29T11:57:52.739Z,13.10
2018-03-29T11:58:52.753Z,12.70
2018-03-29T11:59:52.607Z,13.00
2018-03-29T12:00:53.096Z,12.60
2018-03-29T12:01:53.087Z,12.70
2018-03-29T12:02:53.280Z,12.70
2018-03-29T12:03:53.502Z,13.60
2018-03-29T12:04:53.363Z,14.20
2018-03-29T12:05:53.537Z,13.40
2018-03-29T12:06:53.774Z,13.20
2018-03-29T12:07:53.838Z,15.10
2018-03-29T12:08:54.022Z,13.80
2018-03-29T12:09:54.203Z,13.30
2018-03-29T12:10:54.502Z,13.60
2018-03-29T12:11:54.633Z,13.10
2018-03-29T12:12:54.690Z,12.60
2018-03-29T12:13:54.874Z,13.40
2018-03-29T12:14:55.055Z,13.10
2018-03-29T12:15:55.905Z,13.80
2018-03-29T12:16:55.464Z,14.00
2018-03-29T12:17:55.904Z,13.10
2018-03-29T12:18:55.997Z,14.40
2018-03-29T12:19:55.958Z,14.20
2018-03-29T12:20:56.139Z,13.40
2018-03-29T12:21:56.317Z,13.70
2018-03-29T12:22:56.529Z,12.50
2018-03-29T12:23:56.742Z,13.60
2018-03-29T12:24:56.882Z,12.70
2018-03-29T12:25:57.066Z,13.70
2018-03-29T12:26:59.308Z,13.10
2018-03-29T12:27:57.446Z,13.20
2018-03-29T12:28:57.643Z,12.80
2018-03-29T12:29:58.061Z,12.20
2018-03-29T12:30:58.292Z,13.70
2018-03-29T12:31:58.438Z,12.70
2018-03-29T12:32:58.413Z,12.90
2018-03-29T12:33:58.596Z,13.20
2018-03-29T12:34:58.774Z,12.80
2018-03-29T12:35:58.952Z,12.80
2018-03-29T12:36:59.130Z,13.40
2018-03-29T12:37:59.310Z,12.80
2018-03-29T12:38:59.526Z,12.80
2018-03-29T12:39:59.725Z,13.10
2018-03-29T12:40:59.904Z,13.00
2018-03-29T12:42:00.079Z,12.20
2018-03-29T12:43:00.260Z,11.70
2018-03-29T12:44:00.445Z,11.20
2018-03-29T12:45:00.673Z,11.50
2018-03-29T12:46:00.804Z,11.90
2018-03-29T12:47:00.989Z,10.50
2018-03-29T12:48:01.166Z,10.80
2018-03-29T12:49:01.353Z,11.30
2018-03-29T12:50:02.540Z,11.00
2018-03-29T12:51:01.674Z,11.30
2018-03-29T12:52:01.843Z,12.10
2018-03-29T12:53:02.038Z,10.90
2018-03-29T12:54:02.207Z,11.60
2018-03-29T12:55:02.401Z,12.10
2018-03-29T12:56:02.558Z,11.90
2018-03-29T12:57:02.738Z,11.70
2018-03-29T12:58:02.926Z,11.70
2018-03-29T12:59:03.113Z,12.30
2018-03-29T13:00:03.289Z,12.60
2018-03-29T13:01:03.470Z,12.60
2018-03-29T13:02:03.656Z,12.50
2018-03-29T13:03:03.826Z,11.90
2018-03-29T13:04:04.010Z,11.30
2018-03-29T13:05:04.181Z,12.40
2018-03-29T13:06:04.363Z,11.60
2018-03-29T13:07:04.581Z,12.00
2018-03-29T13:08:04.809Z,12.30
2018-03-29T13:09:04.859Z,12.60
2018-03-29T13:10:05.028Z,12.20
2018-03-29T13:11:05.202Z,12.30
2018-03-29T13:12:05.392Z,11.90
2018-03-29T13:13:05.570Z,11.60
2018-03-29T13:14:05.745Z,11.60
2018-03-29T13:15:05.932Z,12.40
2018-03-29T13:16:06.114Z,11.50
2018-03-29T13:17:06.295Z,11.50
2018-03-29T13:18:06.475Z,11.40
2018-03-29T13:19:06.652Z,11.90
2018-03-29T13:20:06.826Z,11.80
2018-03-29T13:21:07.013Z,11.60
2018-03-29T13:22:07.202Z,12.00
2018-03-29T13:23:07.444Z,12.40
2018-03-29T13:24:07.496Z,12.20
2018-03-29T13:25:07.712Z,11.90
2018-03-29T13:26:07.864Z,11.40
2018-03-29T13:27:08.066Z,12.10
2018-03-29T13:28:08.240Z,11.70
2018-03-29T13:29:08.419Z,11.60
2018-03-29T13:30:08.598Z,11.70
2018-03-29T13:31:08.781Z,12.20
2018-03-29T13:32:08.951Z,11.80
2018-03-29T13:33:09.133Z,11.90
2018-03-29T13:34:09.324Z,12.00
2018-03-29T13:35:09.510Z,11.80
2018-03-29T13:36:09.680Z,12.30
2018-03-29T13:37:09.863Z,12.50
2018-03-29T13:38:10.046Z,12.50
2018-03-29T13:39:10.223Z,14.10
2018-03-29T13:40:10.407Z,20.30
2018-03-29T13:41:10.580Z,14.60
2018-03-29T13:42:10.761Z,15.00
2018-03-29T13:43:10.960Z,14.80
2018-03-29T13:44:11.145Z,15.20
2018-03-29T13:45:11.330Z,13.60
2018-03-29T13:46:11.504Z,12.60
2018-03-29T13:47:11.679Z,11.20
2018-03-29T13:48:11.856Z,10.40
2018-03-29T13:49:12.037Z,11.40